Time;durP1;ratioP1;P1;durP2;ratioP2;P2;SDS_P1;SDS_P2;PMS_P1;PMS_P2;Temp;Humidity;BMP_temperature;BMP_pressure;BME280_temperature;BME280_humidity;BME280_pressure;Samples;Min_cycle;Max_cycle;Signal;HPM_P1;HPM_P2
2024/01/18 00:00:20;;;;;;;15.50;7.10;;;;;;;-4.03;100.00;99477.40;104874;1253;67097;-53
2024/01/18 00:02:47;;;;;;;13.40;6.90;;;;;;;-4.00;100.00;99468.82;104627;1258;73034;-54
2024/01/18 00:05:15;;;;;;;14.90;6.80;;;;;;;-3.97;100.00;99459.36;105083;1256;60560;-53
2024/01/18 00:07:42;;;;;;;12.70;6.10;;;;;;;-3.96;100.00;99456.75;104852;1254;60677;-52
2024/01/18 00:10:10;;;;;;;12.10;7.10;;;;;;;-3.96;100.00;99435.36;104748;1258;73978;-53
2024/01/18 00:12:38;;;;;;;12.40;6.60;;;;;;;-3.95;100.00;99428.36;104722;1257;66833;-53
2024/01/18 00:15:07;;;;;;;13.70;5.90;;;;;;;-3.95;100.00;99419.08;105480;1256;71461;-55
2024/01/18 00:17:35;;;;;;;12.50;5.70;;;;;;;-3.96;100.00;99409.25;105317;1255;60872;-53
2024/01/18 00:20:03;;;;;;;11.90;6.10;;;;;;;-3.95;100.00;99406.45;104692;1254;177870;-55
2024/01/18 00:24:08;;;;;;;14.50;7.70;;;;;;;-3.90;100.00;99438.20;102035;1292;601119;-54
2024/01/18 00:26:35;;;;;;;19.10;8.90;;;;;;;-3.94;100.00;99422.05;104149;1272;59378;-53
2024/01/18 00:29:03;;;;;;;17.60;8.20;;;;;;;-3.97;100.00;99425.19;103982;1272;59194;-53
2024/01/18 00:31:30;;;;;;;14.70;8.10;;;;;;;-4.03;100.00;99403.96;104065;1267;71192;-53
2024/01/18 00:33:58;;;;;;;14.20;8.60;;;;;;;-4.09;100.00;99392.19;104114;1267;66295;-53
2024/01/18 00:36:27;;;;;;;13.90;8.40;;;;;;;-4.19;100.00;99384.96;103902;1274;72494;-54
2024/01/18 00:38:54;;;;;;;17.90;8.00;;;;;;;-4.28;100.00;99376.34;108188;1263;146027;-53
2024/01/18 00:41:22;;;;;;;16.30;8.90;;;;;;;-4.37;100.00;99361.05;104347;1263;60537;-53
2024/01/18 00:43:49;;;;;;;19.80;8.80;;;;;;;-4.46;100.00;99355.75;104186;1268;71933;-53
2024/01/18 00:46:21;;;;;;;20.70;10.30;;;;;;;-4.55;100.00;99353.95;104233;1267;66451;-53
2024/01/18 00:48:48;;;;;;;15.20;8.20;;;;;;;-4.64;100.00;99343.56;104203;1264;70243;-52
2024/01/18 00:51:16;;;;;;;26.70;10.30;;;;;;;-4.71;100.00;99338.11;104037;1267;59705;-52
2024/01/18 00:53:43;;;;;;;17.50;8.70;;;;;;;-4.75;100.00;99327.55;104100;1269;59758;-52
2024/01/18 00:56:11;;;;;;;17.90;9.20;;;;;;;-4.77;100.00;99318.29;104199;1264;71778;-53
2024/01/18 00:58:40;;;;;;;16.40;9.30;;;;;;;-4.77;100.00;99310.23;104094;1264;66910;-52
2024/01/18 01:01:08;;;;;;;15.90;7.60;;;;;;;-4.73;100.00;99299.92;104089;1264;72819;-52
2024/01/18 01:03:37;;;;;;;15.30;7.90;;;;;;;-4.68;100.00;99292.24;106031;1266;60118;-53
2024/01/18 01:06:04;;;;;;;18.30;9.30;;;;;;;-4.64;100.00;99276.52;105436;1269;60043;-53
2024/01/18 01:08:32;;;;;;;12.60;8.60;;;;;;;-4.61;100.00;99263.92;105121;1269;73117;-52
2024/01/18 01:11:03;;;;;;;15.30;8.80;;;;;;;-4.59;100.00;99251.14;104253;1269;65506;-53
2024/01/18 01:13:30;;;;;;;16.40;8.50;;;;;;;-4.59;100.00;99239.59;104106;1270;71492;-53
2024/01/18 01:15:57;;;;;;;16.50;8.60;;;;;;;-4.59;100.00;99232.39;103952;1267;59947;-53
2024/01/18 01:18:25;;;;;;;14.20;7.90;;;;;;;-4.58;100.00;99231.00;104079;1264;59787;-52
2024/01/18 01:20:53;;;;;;;14.90;7.40;;;;;;;-4.55;100.00;99215.61;104130;1263;72122;-53
2024/01/18 01:23:21;;;;;;;11.10;7.10;;;;;;;-4.50;100.00;99213.35;104647;1267;66225;-53
2024/01/18 01:25:48;;;;;;;10.00;6.10;;;;;;;-4.44;100.00;99205.15;104374;1268;74033;-53
2024/01/18 01:28:15;;;;;;;16.50;8.30;;;;;;;-4.38;100.00;99198.33;104115;1267;59746;-53
2024/01/18 01:30:43;;;;;;;14.20;8.50;;;;;;;-4.32;100.00;99180.82;104129;1267;60135;-52
2024/01/18 01:33:10;;;;;;;11.00;5.50;;;;;;;-4.28;100.00;99177.86;104521;1265;71671;-51
2024/01/18 01:35:38;;;;;;;13.90;8.30;;;;;;;-4.25;100.00;99172.95;104997;1269;67160;-54
2024/01/18 01:38:05;;;;;;;11.50;6.80;;;;;;;-4.24;100.00;99167.34;104171;1267;73179;-53
2024/01/18 01:40:32;;;;;;;12.90;7.70;;;;;;;-4.23;100.00;99159.11;104166;1267;60225;-53
2024/01/18 01:43:00;;;;;;;11.90;6.80;;;;;;;-4.21;100.00;99141.77;104296;1267;59774;-54
2024/01/18 01:45:27;;;;;;;16.10;8.30;;;;;;;-4.15;100.00;99143.88;104123;1265;73142;-53
2024/01/18 01:47:54;;;;;;;15.80;6.90;;;;;;;-4.08;100.00;99143.70;104303;1272;67030;-53
2024/01/18 01:50:22;;;;;;;14.10;6.90;;;;;;;-4.01;100.00;99127.94;104170;1267;71491;-53
2024/01/18 01:52:49;;;;;;;13.00;8.20;;;;;;;-3.94;100.00;99134.77;104142;1270;60181;-53
2024/01/18 01:55:16;;;;;;;18.70;8.30;;;;;;;-3.88;100.00;99131.09;104177;1270;59653;-53
2024/01/18 01:57:45;;;;;;;12.80;7.70;;;;;;;-3.82;100.00;99117.93;104284;1271;72382;-53
2024/01/18 02:00:14;;;;;;;16.40;8.30;;;;;;;-3.78;100.00;99109.52;104159;1266;66075;-55
2024/01/18 02:02:42;;;;;;;18.70;9.30;;;;;;;-3.76;100.00;99106.72;104361;1269;71248;-52
2024/01/18 02:05:09;;;;;;;15.40;7.80;;;;;;;-3.73;100.00;99100.56;104108;1264;60540;-54
2024/01/18 02:07:37;;;;;;;16.10;7.90;;;;;;;-3.71;100.00;99085.83;104331;1265;59724;-54
2024/01/18 02:10:05;;;;;;;11.40;7.70;;;;;;;-3.67;100.00;99075.14;104912;1260;73097;-54
2024/01/18 02:12:33;;;;;;;14.50;7.50;;;;;;;-3.64;100.00;99064.06;105542;1259;68926;-55
2024/01/18 02:15:01;;;;;;;18.40;9.70;;;;;;;-3.60;100.00;99050.91;105482;1259;72772;-53
2024/01/18 02:17:29;;;;;;;21.40;10.10;;;;;;;-3.56;100.00;99037.21;105126;1254;59715;-53
2024/01/18 02:19:56;;;;;;;14.80;9.00;;;;;;;-3.53;100.00;99032.30;105101;1259;59884;-54
2024/01/18 02:22:26;;;;;;;13.80;7.40;;;;;;;-3.49;100.00;99026.84;105125;1254;71892;-53
2024/01/18 02:25:14;;;;;;;16.50;7.70;;;;;;;-3.46;100.00;99020.34;105333;1259;65476;-54
2024/01/18 02:27:42;;;;;;;14.20;7.90;;;;;;;-3.41;100.00;99003.67;105175;1255;72735;-53
2024/01/18 02:30:10;;;;;;;16.40;8.40;;;;;;;-3.38;100.00;98992.94;104998;1259;59852;-55
2024/01/18 02:32:37;;;;;;;14.90;8.90;;;;;;;-3.33;100.00;98984.52;105257;1257;59977;-54
2024/01/18 02:35:05;;;;;;;16.40;9.50;;;;;;;-3.31;100.00;98985.36;105055;1256;72069;-53
2024/01/18 02:37:32;;;;;;;20.90;10.60;;;;;;;-3.28;100.00;98977.10;104684;1260;67185;-53
2024/01/18 02:40:00;;;;;;;19.50;10.40;;;;;;;-3.26;100.00;98964.98;104735;1261;72723;-54
2024/01/18 02:42:27;;;;;;;18.60;8.50;;;;;;;-3.23;100.00;98961.27;105107;1258;62614;-53
2024/01/18 02:44:57;;;;;;;13.70;8.10;;;;;;;-3.20;100.00;98945.83;104970;1253;60092;-53
2024/01/18 02:47:25;;;;;;;14.80;7.80;;;;;;;-3.17;100.00;98947.56;104871;1262;74002;-54
2024/01/18 02:49:53;;;;;;;13.30;8.20;;;;;;;-3.14;100.00;98930.34;104842;1259;67074;-54
2024/01/18 02:52:20;;;;;;;11.80;7.90;;;;;;;-3.09;100.00;98923.47;105015;1254;72347;-55
2024/01/18 02:54:47;;;;;;;15.80;9.60;;;;;;;-3.04;100.00;98930.96;105066;1254;59636;-54
2024/01/18 02:57:15;;;;;;;16.40;9.30;;;;;;;-3.00;100.00;98933.77;104761;1258;59787;-53
2024/01/18 02:59:42;;;;;;;18.20;9.40;;;;;;;-2.99;100.00;98940.08;104966;1259;73325;-55
2024/01/18 03:02:09;;;;;;;17.80;9.90;;;;;;;-2.99;100.00;98934.11;104933;1258;66887;-54
2024/01/18 03:04:36;;;;;;;16.60;9.00;;;;;;;-3.00;100.00;98924.64;105038;1254;72796;-54
2024/01/18 03:07:04;;;;;;;16.30;9.20;;;;;;;-3.01;100.00;98919.20;104793;1260;59855;-55
2024/01/18 03:09:32;;;;;;;22.70;8.60;;;;;;;-3.01;100.00;98915.16;105103;1259;60093;-53
2024/01/18 03:11:59;;;;;;;14.70;8.00;;;;;;;-3.00;100.00;98911.46;104810;1259;72833;-54
2024/01/18 03:14:26;;;;;;;14.80;8.40;;;;;;;-2.99;100.00;98904.61;104975;1254;65810;-54
2024/01/18 03:16:54;;;;;;;19.60;9.70;;;;;;;-2.96;100.00;98898.42;104961;1259;74318;-54
2024/01/18 03:19:21;;;;;;;20.30;11.40;;;;;;;-2.93;100.00;98894.38;104859;1260;59794;-53
2024/01/18 03:21:49;;;;;;;18.70;8.70;;;;;;;-2.91;100.00;98887.00;104960;1258;60341;-55
2024/01/18 03:24:16;;;;;;;14.30;7.70;;;;;;;-2.90;100.00;98880.14;104864;1259;71104;-52
2024/01/18 03:26:43;;;;;;;18.30;9.70;;;;;;;-2.89;100.00;98865.89;104960;1258;67201;-53
2024/01/18 03:29:11;;;;;;;19.10;8.40;;;;;;;-2.88;100.00;98864.83;104892;1260;71467;-54
2024/01/18 03:31:38;;;;;;;13.50;8.20;;;;;;;-2.86;100.00;98858.50;105028;1259;59650;-54
2024/01/18 03:34:05;;;;;;;14.80;7.40;;;;;;;-2.82;100.00;98853.02;104864;1254;59920;-55
2024/01/18 03:36:33;;;;;;;17.80;9.30;;;;;;;-2.78;100.00;98847.36;109016;1254;74823;-55
2024/01/18 03:39:00;;;;;;;16.60;9.40;;;;;;;-2.74;100.00;98843.64;109090;1254;66084;-54
2024/01/18 03:41:27;;;;;;;15.80;9.40;;;;;;;-2.70;100.00;98838.50;109035;1257;71664;-55
2024/01/18 03:43:55;;;;;;;19.50;10.60;;;;;;;-2.67;100.00;98831.64;109136;1256;58081;-55
2024/01/18 03:46:22;;;;;;;17.60;9.40;;;;;;;-2.63;100.00;98826.16;109078;1253;59081;-56
2024/01/18 03:48:49;;;;;;;14.80;7.90;;;;;;;-2.60;100.00;98826.11;106511;1257;71914;-54
2024/01/18 03:51:16;;;;;;;15.40;9.80;;;;;;;-2.56;100.00;98821.52;104889;1260;64813;-54
2024/01/18 03:53:44;;;;;;;13.30;8.10;;;;;;;-2.52;100.00;98814.43;105735;1260;71475;-54
2024/01/18 03:56:12;;;;;;;15.10;8.00;;;;;;;-2.47;100.00;98811.04;104644;1262;61005;-53
2024/01/18 03:58:41;;;;;;;14.50;9.60;;;;;;;-2.41;100.00;98805.17;105384;1259;58825;-54
2024/01/18 04:01:08;;;;;;;17.40;9.40;;;;;;;-2.34;100.00;98796.48;104817;1254;72872;-53
2024/01/18 04:03:36;;;;;;;12.50;8.00;;;;;;;-2.29;100.00;98792.36;104850;1258;66402;-53
2024/01/18 04:06:04;;;;;;;15.50;9.20;;;;;;;-2.25;100.00;98787.59;104950;1260;71507;-54
2024/01/18 04:08:32;;;;;;;12.80;6.90;;;;;;;-2.22;100.00;98783.86;104757;1259;59736;-53
2024/01/18 04:11:02;;;;;;;13.10;8.50;;;;;;;-2.18;100.00;98779.40;105134;1261;60085;-54
2024/01/18 04:13:29;;;;;;;13.00;7.50;;;;;;;-2.13;100.00;98774.43;104978;1258;72055;-54
2024/01/18 04:15:57;;;;;;;11.20;6.80;;;;;;;-2.07;100.00;98769.96;105049;1255;66786;-54
2024/01/18 04:18:24;;;;;;;12.70;7.00;;;;;;;-2.01;100.00;98767.58;104922;1259;73202;-54
2024/01/18 04:20:52;;;;;;;9.50;6.10;;;;;;;-1.93;100.00;98763.27;104870;1257;59707;-54
2024/01/18 04:23:21;;;;;;;12.90;7.70;;;;;;;-1.86;100.00;98763.32;104998;1259;59653;-54
2024/01/18 04:25:51;;;;;;;12.20;6.60;;;;;;;-1.79;100.00;98755.84;104899;1260;71804;-53
2024/01/18 04:28:19;;;;;;;10.90;7.20;;;;;;;-1.72;100.00;98756.79;104893;1259;67387;-54
2024/01/18 04:30:47;;;;;;;12.40;7.50;;;;;;;-1.67;100.00;98758.64;105211;1260;71320;-54
2024/01/18 04:33:14;;;;;;;14.20;7.90;;;;;;;-1.63;100.00;98760.70;104837;1255;60555;-55
2024/01/18 04:35:42;;;;;;;11.90;6.60;;;;;;;-1.58;100.00;98766.06;105158;1254;60603;-55
2024/01/18 04:38:09;;;;;;;13.10;7.40;;;;;;;-1.54;100.00;98773.03;105036;1260;73903;-55
2024/01/18 04:40:36;;;;;;;12.80;7.10;;;;;;;-1.48;100.00;98762.59;105021;1259;67491;-55
2024/01/18 04:43:04;;;;;;;10.90;6.40;;;;;;;-1.42;100.00;98754.02;104773;1266;74790;-55
2024/01/18 04:45:31;;;;;;;10.70;6.60;;;;;;;-1.36;100.00;98749.88;105147;1260;61269;-54
2024/01/18 04:47:58;;;;;;;12.70;6.80;;;;;;;-1.28;100.00;98746.58;105185;1255;60529;-55
2024/01/18 04:50:26;;;;;;;9.30;6.10;;;;;;;-1.21;100.00;98752.80;106105;1254;73820;-53
2024/01/18 04:52:53;;;;;;;13.70;7.90;;;;;;;-1.14;100.00;98749.16;104993;1261;66051;-54
2024/01/18 04:55:22;;;;;;;11.00;6.50;;;;;;;-1.08;100.00;98740.23;104955;1254;71943;-55
2024/01/18 04:57:49;;;;;;;14.00;8.30;;;;;;;-1.01;100.00;98738.71;104832;1258;60879;-53
2024/01/18 05:00:17;;;;;;;11.90;7.00;;;;;;;-0.97;100.00;98731.94;104960;1254;60618;-53
2024/01/18 05:02:44;;;;;;;12.60;8.50;;;;;;;-0.94;100.00;98733.11;104956;1255;73043;-54
2024/01/18 05:05:12;;;;;;;15.60;8.20;;;;;;;-0.89;100.00;98730.20;104735;1259;65986;-55
2024/01/18 05:07:42;;;;;;;9.60;5.60;;;;;;;-0.84;100.00;98719.54;104981;1259;72960;-54
2024/01/18 05:10:10;;;;;;;8.40;5.50;;;;;;;-0.79;100.00;98712.57;105172;1260;60929;-54
2024/01/18 05:12:38;;;;;;;8.90;5.50;;;;;;;-0.71;100.00;98704.50;105050;1260;60315;-55
2024/01/18 05:15:10;;;;;;;12.90;6.10;;;;;;;-0.63;100.00;98675.45;105039;1255;74339;-54
2024/01/18 05:17:39;;;;;;;10.00;5.60;;;;;;;-0.52;100.00;98666.20;105093;1258;67070;-54
2024/01/18 05:20:07;;;;;;;11.80;5.60;;;;;;;-0.40;100.00;98671.96;105064;1255;73602;-54
2024/01/18 05:22:35;;;;;;;7.30;4.60;;;;;;;-0.30;100.00;98681.08;105155;1260;60533;-55
2024/01/18 05:25:03;;;;;;;8.80;5.40;;;;;;;-0.22;100.00;98682.48;104739;1259;60902;-55
2024/01/18 05:27:30;;;;;;;4.30;3.30;;;;;;;-0.12;100.00;98675.75;104669;1266;73926;-55
2024/01/18 05:29:58;;;;;;;6.10;3.40;;;;;;;-0.03;100.00;98667.06;104871;1261;65078;-55
2024/01/18 05:32:26;;;;;;;5.60;2.60;;;;;;;0.07;100.00;98663.13;105577;1255;71473;-56
2024/01/18 05:34:53;;;;;;;6.70;3.00;;;;;;;0.18;100.00;98652.11;105190;1267;60546;-55
2024/01/18 05:37:22;;;;;;;8.20;3.20;;;;;;;0.30;100.00;98644.05;105044;1259;60374;-55
2024/01/18 05:39:53;;;;;;;5.80;3.70;;;;;;;0.41;100.00;98638.29;105065;1254;74444;-52
2024/01/18 05:42:22;;;;;;;4.40;3.80;;;;;;;0.52;100.00;98633.07;106058;1259;66233;-54
2024/01/18 05:44:50;;;;;;;4.60;2.80;;;;;;;0.61;100.00;98631.08;105092;1261;71982;-54
2024/01/18 05:47:17;;;;;;;7.90;5.10;;;;;;;0.70;100.00;98637.02;105136;1257;60686;-54
2024/01/18 05:49:45;;;;;;;5.50;3.80;;;;;;;0.79;100.00;98637.84;104723;1255;60497;-56
2024/01/18 05:52:12;;;;;;;9.10;4.30;;;;;;;0.88;100.00;98639.70;104726;1259;74305;-55
2024/01/18 05:54:40;;;;;;;4.90;2.90;;;;;;;0.94;100.00;98636.00;104847;1259;67558;-56
2024/01/18 05:57:07;;;;;;;5.90;3.80;;;;;;;1.01;100.00;98629.47;104671;1262;71476;-54
2024/01/18 05:59:34;;;;;;;3.30;2.90;;;;;;;1.06;100.00;98617.98;104876;1260;60723;-54
2024/01/18 06:02:03;;;;;;;3.30;2.70;;;;;;;1.13;100.00;98621.33;104718;1255;60745;-54
2024/01/18 06:04:30;;;;;;;3.20;2.40;;;;;;;1.20;100.00;98621.85;104706;1259;74309;-54
2024/01/18 06:06:58;;;;;;;5.00;3.30;;;;;;;1.25;100.00;98608.81;105397;1254;66701;-55
2024/01/18 06:09:26;;;;;;;4.10;2.60;;;;;;;1.30;100.00;98609.00;104765;1260;73049;-54
2024/01/18 06:11:54;;;;;;;5.10;3.30;;;;;;;1.35;100.00;98610.45;104612;1259;61352;-55
2024/01/18 06:14:21;;;;;;;5.00;2.90;;;;;;;1.40;100.00;98605.88;104709;1258;60604;-54
2024/01/18 06:16:49;;;;;;;5.70;3.60;;;;;;;1.45;100.00;98603.77;104672;1254;73891;-55
2024/01/18 06:19:16;;;;;;;4.40;3.30;;;;;;;1.51;100.00;98598.13;104692;1260;67195;-55
2024/01/18 06:21:43;;;;;;;6.40;3.20;;;;;;;1.56;100.00;98601.86;108744;1254;71417;-56
2024/01/18 06:24:11;;;;;;;4.90;2.90;;;;;;;1.60;100.00;98591.66;105719;1257;60553;-54
2024/01/18 06:26:38;;;;;;;5.50;3.00;;;;;;;1.65;100.00;98587.09;104643;1260;60914;-54
2024/01/18 06:29:05;;;;;;;4.60;4.10;;;;;;;1.69;100.00;98591.92;104744;1255;73152;-53
2024/01/18 06:31:33;;;;;;;4.50;3.90;;;;;;;1.72;100.00;98582.97;104503;1254;65900;-53
2024/01/18 06:34:00;;;;;;;4.40;3.80;;;;;;;1.76;100.00;98572.59;104991;1254;76296;-55
2024/01/18 06:36:28;;;;;;;5.40;3.70;;;;;;;1.79;100.00;98569.12;109010;1253;58670;-55
2024/01/18 06:38:55;;;;;;;5.40;3.30;;;;;;;1.81;100.00;98566.40;108992;1254;61021;-55
2024/01/18 06:41:23;;;;;;;3.40;3.00;;;;;;;1.85;100.00;98562.05;109014;1254;72126;-54
2024/01/18 06:43:50;;;;;;;3.60;3.30;;;;;;;1.89;100.00;98567.21;106595;1257;66956;-55
2024/01/18 06:46:18;;;;;;;3.90;3.40;;;;;;;1.93;100.00;98576.13;105143;1257;71630;-53
2024/01/18 06:48:52;;;;;;;7.60;3.10;;;;;;;1.97;100.00;98571.92;105834;1254;60991;-52
2024/01/18 06:51:21;;;;;;;3.00;2.60;;;;;;;2.01;100.00;98565.40;106465;1254;60804;-52
2024/01/18 06:53:53;;;;;;;3.50;2.80;;;;;;;2.06;100.00;98569.14;105809;1258;74092;-51
2024/01/18 06:56:20;;;;;;;4.50;2.50;;;;;;;2.10;100.00;98573.59;105275;1254;67234;-53
2024/01/18 06:58:47;;;;;;;4.40;2.90;;;;;;;2.14;100.00;98573.98;105095;1258;71531;-52
2024/01/18 07:01:15;;;;;;;7.50;3.90;;;;;;;2.16;100.00;98574.45;105136;1256;60559;-53
2024/01/18 07:03:42;;;;;;;6.10;2.60;;;;;;;2.18;100.00;98577.94;106638;1254;60529;-52
2024/01/18 07:06:11;;;;;;;7.80;3.80;;;;;;;2.19;100.00;98577.04;104803;1257;73927;-52
2024/01/18 07:08:39;;;;;;;4.10;2.70;;;;;;;2.19;100.00;98576.85;105127;1258;65350;-52
2024/01/18 07:11:07;;;;;;;4.30;2.90;;;;;;;2.19;100.00;98571.02;105402;1254;74159;-52
2024/01/18 07:13:34;;;;;;;5.10;3.20;;;;;;;2.20;100.00;98570.27;104981;1254;60550;-52
2024/01/18 07:16:02;;;;;;;5.40;3.10;;;;;;;2.20;100.00;98568.15;105084;1259;60466;-51
2024/01/18 07:18:30;;;;;;;4.90;3.70;;;;;;;2.21;100.00;98557.30;105258;1254;71745;-53
2024/01/18 07:20:57;;;;;;;6.20;2.80;;;;;;;2.22;100.00;98558.30;105078;1254;65791;-50
2024/01/18 07:23:24;;;;;;;5.80;3.20;;;;;;;2.23;100.00;98552.63;104980;1258;71703;-53
2024/01/18 07:25:52;;;;;;;3.80;2.40;;;;;;;2.26;100.00;98546.35;105051;1257;61039;-53
2024/01/18 07:28:22;;;;;;;4.90;3.00;;;;;;;2.27;100.00;98544.00;105081;1254;60547;-53
2024/01/18 07:30:49;;;;;;;3.50;2.80;;;;;;;2.28;100.00;98548.91;105001;1259;74020;-52
2024/01/18 07:33:17;;;;;;;4.30;3.20;;;;;;;2.31;100.00;98547.04;105137;1257;65769;-52
2024/01/18 07:35:44;;;;;;;7.80;4.20;;;;;;;2.33;100.00;98542.93;105234;1254;71426;-52
2024/01/18 07:38:13;;;;;;;4.30;3.40;;;;;;;2.34;100.00;98552.96;105035;1256;60495;-53
2024/01/18 07:40:41;;;;;;;3.40;2.80;;;;;;;2.36;100.00;98555.91;104925;1254;60829;-54
2024/01/18 07:43:08;;;;;;;14.70;9.70;;;;;;;2.37;100.00;98544.73;105103;1259;74328;-51
2024/01/18 07:45:35;;;;;;;18.30;12.00;;;;;;;2.37;100.00;98538.72;105107;1254;67030;-52
2024/01/18 07:48:03;;;;;;;24.40;15.50;;;;;;;2.38;100.00;98532.85;105111;1257;72414;-53
2024/01/18 07:50:31;;;;;;;16.70;9.50;;;;;;;2.40;100.00;98533.64;105145;1254;60491;-52
2024/01/18 07:53:04;;;;;;;8.70;6.20;;;;;;;2.42;100.00;98531.10;105442;1260;60466;-54
2024/01/18 07:55:31;;;;;;;10.10;9.10;;;;;;;2.44;100.00;98525.19;105286;1254;73910;-52
2024/01/18 07:57:59;;;;;;;5.90;4.00;;;;;;;2.47;100.00;98526.11;105108;1255;65771;-53
2024/01/18 08:00:26;;;;;;;3.30;2.50;;;;;;;2.51;100.00;98523.52;105013;1257;71669;-51
2024/01/18 08:02:54;;;;;;;4.80;4.30;;;;;;;2.55;100.00;98518.60;104810;1257;60601;-54
2024/01/18 08:05:24;;;;;;;5.10;3.60;;;;;;;2.57;100.00;98518.33;104759;1254;60515;-52
2024/01/18 08:07:51;;;;;;;4.50;3.30;;;;;;;2.58;100.00;98519.52;105082;1258;73913;-53
2024/01/18 08:10:19;;;;;;;4.40;2.90;;;;;;;2.59;100.00;98523.92;104942;1254;67335;-54
2024/01/18 08:12:49;;;;;;;4.50;2.50;;;;;;;2.60;100.00;98512.02;105565;1259;71466;-54
2024/01/18 08:15:16;;;;;;;3.40;3.00;;;;;;;2.61;100.00;98518.91;105218;1254;60495;-54
2024/01/18 08:17:44;;;;;;;5.30;4.20;;;;;;;2.62;100.00;98506.65;105092;1259;61246;-54
2024/01/18 08:20:14;;;;;;;7.00;6.30;;;;;;;2.63;100.00;98506.78;105116;1254;74424;-54
2024/01/18 08:22:42;;;;;;;4.00;3.50;;;;;;;2.65;100.00;98508.30;105067;1254;65508;-55
2024/01/18 08:25:12;;;;;;;5.50;3.10;;;;;;;2.68;100.00;98500.58;105023;1254;72746;-56
2024/01/18 08:27:41;;;;;;;6.90;6.20;;;;;;;2.70;100.00;98502.11;104991;1254;61075;-54
2024/01/18 08:30:09;;;;;;;5.20;4.80;;;;;;;2.73;100.00;98500.41;106131;1254;60597;-51
2024/01/18 08:32:37;;;;;;;9.50;8.10;;;;;;;2.74;100.00;98492.75;104966;1259;74254;-55
2024/01/18 08:35:08;;;;;;;4.60;3.80;;;;;;;2.74;100.00;98489.19;104892;1255;66221;-56
2024/01/18 08:37:37;;;;;;;10.10;8.60;;;;;;;2.76;100.00;98485.96;105013;1260;73662;-57
2024/01/18 08:40:05;;;;;;;11.70;9.40;;;;;;;2.76;100.00;98485.05;105372;1255;60411;-57
2024/01/18 08:42:33;;;;;;;11.90;9.70;;;;;;;2.77;100.00;98474.92;104785;1254;60799;-55
2024/01/18 08:45:00;;;;;;;4.50;4.10;;;;;;;2.79;100.00;98472.73;104934;1259;72830;-53
2024/01/18 08:47:27;;;;;;;11.80;8.70;;;;;;;2.81;100.00;98473.33;105233;1259;67475;-55
2024/01/18 08:49:55;;;;;;;7.10;6.30;;;;;;;2.83;100.00;98473.98;105235;1261;73061;-54
2024/01/18 08:52:22;;;;;;;8.90;8.10;;;;;;;2.84;100.00;98481.73;105065;1254;60594;-54
2024/01/18 08:54:53;;;;;;;4.50;4.10;;;;;;;2.84;100.00;98483.88;105219;1256;60869;-56
2024/01/18 08:57:22;;;;;;;5.00;4.30;;;;;;;2.84;100.00;98474.64;105343;1254;76205;-54
2024/01/18 08:59:52;;;;;;;6.40;3.00;;;;;;;2.85;100.00;98476.05;105368;1254;68302;-53
2024/01/18 09:02:20;;;;;;;3.70;3.20;;;;;;;2.86;100.00;98470.16;105025;1254;71182;-54
2024/01/18 09:04:50;;;;;;;5.60;3.70;;;;;;;2.85;100.00;98461.52;105652;1254;62294;-56
2024/01/18 09:07:19;;;;;;;4.30;3.90;;;;;;;2.83;100.00;98468.65;105422;1254;61048;-55
2024/01/18 09:09:47;;;;;;;4.10;3.70;;;;;;;2.82;100.00;98469.94;108218;1256;73015;-53
2024/01/18 09:12:15;;;;;;;4.60;3.50;;;;;;;2.82;100.00;98467.81;105269;1254;65876;-57
2024/01/18 09:14:44;;;;;;;5.10;4.40;;;;;;;2.81;100.00;98462.90;105450;1261;75058;-54
2024/01/18 09:17:12;;;;;;;4.30;3.90;;;;;;;2.81;100.00;98453.84;108783;1254;62960;-54
2024/01/18 09:19:41;;;;;;;5.30;4.80;;;;;;;2.83;100.00;98453.79;105655;1253;60642;-55
2024/01/18 09:22:10;;;;;;;5.90;4.40;;;;;;;2.84;100.00;98449.68;105728;1256;74944;-53
2024/01/18 09:24:38;;;;;;;6.30;4.70;;;;;;;2.85;100.00;98449.64;105306;1255;65627;-54
2024/01/18 09:27:05;;;;;;;4.80;4.20;;;;;;;2.87;100.00;98458.98;105352;1254;74891;-54
2024/01/18 09:29:33;;;;;;;4.60;4.20;;;;;;;2.88;100.00;98462.65;105201;1254;60480;-56
2024/01/18 09:32:01;;;;;;;5.60;4.40;;;;;;;2.90;100.00;98450.50;105138;1254;60303;-53
2024/01/18 09:34:28;;;;;;;7.70;6.60;;;;;;;2.90;100.00;98441.10;105325;1254;74221;-54
2024/01/18 09:36:57;;;;;;;6.70;5.30;;;;;;;2.88;100.00;98437.46;105228;1256;69227;-56
2024/01/18 09:39:28;;;;;;;6.70;6.00;;;;;;;2.88;100.00;98438.21;105137;1257;73732;-54
2024/01/18 09:41:55;;;;;;;9.30;5.70;;;;;;;2.87;100.00;98434.33;104962;1259;61807;-54
2024/01/18 09:44:25;;;;;;;5.40;4.70;;;;;;;2.87;100.00;98423.36;108854;1254;58950;-55
2024/01/18 09:46:53;;;;;;;6.10;5.30;;;;;;;2.87;100.00;98422.98;108939;1254;72845;-55
2024/01/18 09:49:21;;;;;;;6.80;6.00;;;;;;;2.88;100.00;98427.90;108988;1254;66105;-52
2024/01/18 09:51:49;;;;;;;6.20;5.50;;;;;;;2.91;100.00;98421.05;108921;1254;72721;-55
2024/01/18 09:54:17;;;;;;;9.50;6.80;;;;;;;2.93;100.00;98420.97;108854;1256;60930;-54
2024/01/18 09:56:45;;;;;;;8.20;6.70;;;;;;;2.96;100.00;98422.11;108823;1254;58901;-53
2024/01/18 09:59:18;;;;;;;6.30;5.80;;;;;;;2.98;100.00;98417.55;109055;1256;72706;-53
2024/01/18 10:01:45;;;;;;;6.50;4.00;;;;;;;3.00;100.00;98413.61;108961;1254;65842;-54
2024/01/18 10:04:13;;;;;;;7.50;5.90;;;;;;;3.03;100.00;98412.78;108806;1254;71416;-54
2024/01/18 10:06:40;;;;;;;7.40;6.10;;;;;;;3.07;100.00;98410.52;108867;1254;59948;-53
2024/01/18 10:09:14;;;;;;;6.20;5.60;;;;;;;3.10;100.00;98405.61;108187;1254;60577;-56
2024/01/18 10:11:45;;;;;;;6.10;5.20;;;;;;;3.14;100.00;98403.85;108987;1257;73180;-56
2024/01/18 10:14:13;;;;;;;6.50;5.70;;;;;;;3.17;100.00;98400.90;108970;1254;66177;-52
2024/01/18 10:16:41;;;;;;;7.70;6.50;;;;;;;3.19;100.00;98397.80;105585;1254;72734;-52
2024/01/18 10:19:18;;;;;;;7.20;5.40;;;;;;;3.21;100.00;98395.42;105824;1256;60543;-54
2024/01/18 10:21:46;;;;;;;10.30;8.70;;;;;;;3.23;100.00;98395.32;108799;1253;60457;-53
2024/01/18 10:24:14;;;;;;;8.80;7.00;;;;;;;3.25;100.00;98391.88;106670;1254;74326;-54
2024/01/18 10:26:42;;;;;;;10.00;8.50;;;;;;;3.26;100.00;98391.12;104799;1261;65850;-52
2024/01/18 10:29:09;;;;;;;7.70;6.90;;;;;;;3.27;100.00;98386.11;104906;1258;71785;-53
2024/01/18 10:31:41;;;;;;;8.80;7.20;;;;;;;3.29;100.00;98383.75;105011;1254;60414;-53
2024/01/18 10:34:09;;;;;;;12.80;6.90;;;;;;;3.29;100.00;98374.70;106108;1256;60424;-54
2024/01/18 10:36:37;;;;;;;8.20;7.40;;;;;;;3.30;100.00;98372.38;105067;1259;73911;-54
2024/01/18 10:39:16;;;;;;;9.40;8.00;;;;;;;3.30;100.00;98375.73;106340;1254;67289;-54
2024/01/18 10:41:44;;;;;;;9.00;8.10;;;;;;;3.29;100.00;98374.88;104971;1254;71616;-51
2024/01/18 10:44:15;;;;;;;8.60;7.50;;;;;;;3.29;100.00;98371.52;105166;1254;60969;-54
2024/01/18 10:46:43;;;;;;;9.20;8.40;;;;;;;3.29;100.00;98367.95;105124;1254;60466;-52
2024/01/18 10:49:10;;;;;;;9.10;7.90;;;;;;;3.31;100.00;98364.69;105690;1257;72654;-56
2024/01/18 10:51:39;;;;;;;10.80;8.00;;;;;;;3.32;100.00;98360.36;105016;1254;69497;-55
2024/01/18 10:54:08;;;;;;;10.60;8.70;;;;;;;3.33;100.00;98361.58;106496;1259;71447;-55
2024/01/18 10:56:51;;;;;;;10.00;8.30;;;;;;;3.33;100.00;98358.23;104775;1257;60547;-54
2024/01/18 10:59:20;;;;;;;12.20;9.60;;;;;;;3.33;100.00;98350.77;105083;1254;60544;-52
2024/01/18 11:01:47;;;;;;;10.30;7.70;;;;;;;3.33;100.00;98350.07;104943;1254;72612;-56
2024/01/18 11:04:15;;;;;;;8.50;7.60;;;;;;;3.31;100.00;98337.19;104973;1258;66344;-52
2024/01/18 11:06:44;;;;;;;10.30;8.50;;;;;;;3.31;100.00;98339.50;104787;1256;72768;-54
2024/01/18 11:09:12;;;;;;;10.80;9.00;;;;;;;3.29;100.00;98339.59;105681;1257;60526;-54
2024/01/18 11:11:40;;;;;;;7.10;6.00;;;;;;;3.28;100.00;98336.27;104916;1254;60607;-53
2024/01/18 11:14:08;;;;;;;9.30;8.00;;;;;;;3.28;100.00;98332.19;105049;1254;73916;-55
2024/01/18 11:16:38;;;;;;;13.90;10.30;;;;;;;3.28;100.00;98318.02;105043;1254;66993;-53
2024/01/18 11:19:05;;;;;;;12.50;9.00;;;;;;;3.27;100.00;98313.05;105196;1260;71512;-52
2024/01/18 11:21:51;;;;;;;11.70;8.90;;;;;;;3.26;100.00;98318.77;105523;1254;60938;-54